Barfleur — FNIE — position and weather

sailwx.info

Track history (hours):
 
Tides and Currents Weather Stations Pressure Air Temp Water Temp Dewpoint Dewpoint Depression Visibility Wind Speed Wind Dir Waves Ship Positions

Barfleur

Operator: Brittany Ferries

Last reported at 2019-Oct-22 08:27 UTC. Time now 2019-Oct-22 23:41 UTC.
Position N 50°29' W 001°51'.

Length 158 m; draft 5 m.

Type: Ship. MMSI: 227289000.

Date/timePositionNaut miles runAvg speedWind from/ knotsBaromVisibWave heightAir tempDewpointWater temp
2019-Oct-22 08:27N 50°29' W 001°51'817.4
2019-Oct-22 08:00N 50°36' W 001°53'612.9
2019-Oct-22 07:31N 50°42' W 001°57'1 2.8
2019-Oct-22 07:00N 50°42' W 001°59'0 0.0
2019-Oct-22 06:30N 50°42' W 001°59'0 0.0
2019-Oct-22 06:00N 50°42' W 001°59'2 3.4
2019-Oct-22 05:31N 50°42' W 001°57'611.9
2019-Oct-22 05:00N 50°36' W 001°53'612.7
2019-Oct-22 04:31N 50°30' W 001°50'2 0.1
2019-Oct-21 08:30N 50°29' W 001°50'917.6
2019-Oct-21 08:00N 50°37' W 001°54'612.1
2019-Oct-21 07:30N 50°42' W 001°58'1 1.3
2019-Oct-21 06:58N 50°42' W 001°59'0 0.0
2019-Oct-21 06:31N 50°42' W 001°59'0 0.0
2019-Oct-21 06:00N 50°42' W 001°59'0 0.0
2019-Oct-21 05:31N 50°42' W 001°59'0 0.0
2019-Oct-21 05:00N 50°42' W 001°59'0 0.0
2019-Oct-21 04:30N 50°42' W 001°59'0 0.0
2019-Oct-21 04:01N 50°42' W 001°59'0 0.0
2019-Oct-21 03:30N 50°42' W 001°59'0 0.0
2019-Oct-21 03:01N 50°42' W 001°59'0 0.0
2019-Oct-21 02:30N 50°42' W 001°59'0 0.0
2019-Oct-21 02:00N 50°42' W 001°59'0 0.0
2019-Oct-21 01:30N 50°42' W 001°59'0 0.0
2019-Oct-21 01:01N 50°42' W 001°59'0 0.0
2019-Oct-21 00:30N 50°42' W 001°59'0 0.0
2019-Oct-21 00:00N 50°42' W 001°59'0 0.0
2019-Oct-20 23:31N 50°42' W 001°59'0 0.0
2019-Oct-20 23:00N 50°42' W 001°59'0 0.0
2019-Oct-20 22:31N 50°42' W 001°59'0 0.0
2019-Oct-20 22:01N 50°42' W 001°59'0 0.0
2019-Oct-20 21:31N 50°42' W 001°59'0 0.0
2019-Oct-20 21:00N 50°42' W 001°59'2 4.2
2019-Oct-20 20:31N 50°41' W 001°57'713.9
2019-Oct-20 20:01N 50°35' W 001°52'9 0.8
2019-Oct-20 08:37N 50°26' W 001°50'217.4
2019-Oct-20 08:30N 50°28' W 001°51'817.3
2019-Oct-20 08:00N 50°36' W 001°52'612.4
2019-Oct-20 07:31N 50°42' W 001°57'2 3.4
2019-Oct-20 07:01N 50°42' W 001°59'0 0.0
2019-Oct-20 06:30N 50°42' W 001°59'0 0.0
2019-Oct-20 06:00N 50°42' W 001°59'0 0.0
2019-Oct-20 05:30N 50°42' W 001°59'0 0.0
2019-Oct-20 05:00N 50°42' W 001°59'0 0.0
2019-Oct-20 04:30N 50°42' W 001°59'0 0.0
2019-Oct-20 04:01N 50°42' W 001°59'0 0.0
2019-Oct-20 03:30N 50°42' W 001°59'0 0.0
2019-Oct-20 03:00N 50°42' W 001°59'0 0.0
2019-Oct-20 02:25N 50°42' W 001°59'0 0.0
2019-Oct-20 01:55N 50°42' W 001°59'0 0.0
2019-Oct-20 01:28N 50°42' W 001°59'0 0.0
2019-Oct-20 00:55N 50°42' W 001°59'0 0.0
2019-Oct-20 00:28N 50°42' W 001°59'0 0.0
2019-Oct-19 23:58N 50°42' W 001°59'0 0.0
2019-Oct-19 23:25N 50°42' W 001°59'0 0.0
2019-Oct-19 22:58N 50°42' W 001°59'0 0.0
2019-Oct-19 22:19N 50°42' W 001°59'0 0.0
2019-Oct-19 21:58N 50°42' W 001°59'0 0.0
2019-Oct-19 21:28N 50°42' W 001°59'0 0.0
2019-Oct-19 20:55N 50°42' W 001°59'0 1.1
2019-Oct-19 20:30N 50°42' W 001°59'611.3
2019-Oct-19 20:01N 50°38' W 001°54'916.9
2019-Oct-19 19:30N 50°29' W 001°50'2 0.2
2019-Oct-19 08:35N 50°27' W 001°51'216.7
2019-Oct-19 08:30N 50°29' W 001°52'816.1
2019-Oct-19 08:00N 50°37' W 001°53'611.2
2019-Oct-19 07:31N 50°42' W 001°57'2 3.3
2019-Oct-19 07:01N 50°42' W 001°59'0 0.0
2019-Oct-19 06:29N 50°42' W 001°59'0 0.0
2019-Oct-19 05:59N 50°42' W 001°59'0 0.0
2019-Oct-19 05:29N 50°42' W 001°59'0 0.0
2019-Oct-19 04:59N 50°42' W 001°59'0 0.0
2019-Oct-19 04:29N 50°42' W 001°59'0 0.0
2019-Oct-19 03:57N 50°42' W 001°59'0 0.0
2019-Oct-19 03:29N 50°42' W 001°59'0 0.0
2019-Oct-19 02:59N 50°42' W 001°59'0 0.0
2019-Oct-19 02:29N 50°42' W 001°59'0 0.0
2019-Oct-19 01:59N 50°42' W 001°59'0 0.0
2019-Oct-19 01:29N 50°42' W 001°59'0 0.0
2019-Oct-19 00:59N 50°42' W 001°59'0 0.0
2019-Oct-19 00:29N 50°42' W 001°59'0 0.0
2019-Oct-18 23:59N 50°42' W 001°59'0 0.0
2019-Oct-18 23:27N 50°42' W 001°59'0 0.0
2019-Oct-18 22:59N 50°42' W 001°59'0 0.0
2019-Oct-18 22:29N 50°42' W 001°59'0 0.0
2019-Oct-18 21:59N 50°42' W 001°59'0 0.0
2019-Oct-18 21:29N 50°42' W 001°59'0 0.0
2019-Oct-18 21:00N 50°42' W 001°59'3 6.7
2019-Oct-18 20:30N 50°40' W 001°56'815.9
2019-Oct-18 20:00N 50°33' W 001°51'5316.3
2019-Oct-18 16:46N 49°40' W 001°39'14 2.4
2019-Oct-18 10:57N 49°54' W 001°33'614.8
2019-Oct-18 10:30N 50°00' W 001°33'714.6
2019-Oct-18 10:00N 50°08' W 001°36'816.4
2019-Oct-18 09:30N 50°15' W 001°41'1416.1
2019-Oct-18 08:40N 50°27' W 001°50'215.9
2019-Oct-18 08:30N 50°30' W 001°51'815.0
2019-Oct-18 08:00N 50°37' W 001°54'510.3
2019-Oct-18 07:30N 50°42' W 001°57'2 3.1
2019-Oct-18 06:59N 50°42' W 001°59'0 0.0
2019-Oct-18 06:29N 50°42' W 001°59'0 0.0
2019-Oct-18 05:59N 50°42' W 001°59'0 0.0
2019-Oct-18 05:29N 50°42' W 001°59'0 0.0
2019-Oct-18 04:59N 50°42' W 001°59'0 0.0
2019-Oct-18 04:29N 50°42' W 001°59'0 0.0
2019-Oct-18 03:59N 50°42' W 001°59'0 0.0
2019-Oct-18 03:29N 50°42' W 001°59'0 0.0
2019-Oct-18 02:59N 50°42' W 001°59'0 0.0
2019-Oct-18 02:23N 50°42' W 001°59'0 0.0
2019-Oct-18 01:59N 50°42' W 001°59'0 0.0
2019-Oct-18 01:26N 50°42' W 001°59'0 0.0
2019-Oct-18 00:59N 50°42' W 001°59'0 0.0
2019-Oct-18 00:29N 50°42' W 001°59'0 0.0
2019-Oct-17 23:59N 50°42' W 001°59'0 0.0
2019-Oct-17 23:29N 50°42' W 001°59'0 0.0
2019-Oct-17 22:59N 50°42' W 001°59'0 0.0
2019-Oct-17 22:29N 50°42' W 001°59'0 0.0
2019-Oct-17 21:59N 50°42' W 001°59'0 0.0
2019-Oct-17 21:29N 50°42' W 001°59'0 0.1
2019-Oct-17 21:00N 50°42' W 001°59'4 7.3
2019-Oct-17 20:30N 50°40' W 001°56'815.7
2019-Oct-17 20:00N 50°33' W 001°50'2616.4
2019-Oct-17 18:25N 50°07' W 001°45'716.6
2019-Oct-17 18:00N 50°00' W 001°44'816.8
2019-Oct-17 17:31N 49°52' W 001°42'816.9
2019-Oct-17 17:00N 49°43' W 001°40'5 9.1
2019-Oct-17 16:27N 49°39' W 001°37'0 0.0
2019-Oct-17 15:58N 49°39' W 001°37'0 0.0
2019-Oct-17 15:30N 49°39' W 001°37'0 0.0
2019-Oct-17 15:00N 49°39' W 001°37'0 0.0
2019-Oct-17 14:31N 49°39' W 001°37'0 0.0
2019-Oct-17 14:00N 49°39' W 001°37'0 0.0
2019-Oct-17 13:30N 49°39' W 001°37'0 0.0
2019-Oct-17 13:00N 49°39' W 001°37'0 0.0
2019-Oct-17 12:30N 49°39' W 001°37'0 0.0
2019-Oct-17 12:00N 49°39' W 001°37'4 8.5
2019-Oct-17 11:30N 49°43' W 001°36'917.2
2019-Oct-17 11:00N 49°52' W 001°38'816.8
2019-Oct-17 10:31N 49°60' W 001°41'816.0
2019-Oct-17 10:01N 50°07' W 001°44'816.0
2019-Oct-17 09:30N 50°16' W 001°46'1216.2
2019-Oct-17 08:46N 50°27' W 001°51'416.4
2019-Oct-17 08:30N 50°31' W 001°52'815.3
2019-Oct-17 08:00N 50°39' W 001°55'5 9.1
2019-Oct-17 07:30N 50°42' W 001°59'0 0.8
2019-Oct-17 07:00N 50°42' W 001°59'0 0.0
2019-Oct-17 06:30N 50°42' W 001°59'0 0.0
2019-Oct-17 06:00N 50°42' W 001°59'2 4.3
2019-Oct-17 05:30N 50°41' W 001°57'4 7.2
2019-Oct-17 05:00N 50°38' W 001°54'714.1
2019-Oct-17 04:30N 50°31' W 001°51'1613.8
2019-Oct-17 03:20N 50°15' W 001°47'412.5
2019-Oct-17 03:01N 50°11' W 001°46'611.8
2019-Oct-17 02:30N 50°05' W 001°47'612.3
2019-Oct-17 02:00N 49°59' W 001°45'613.0
2019-Oct-17 01:30N 49°53' W 001°43'713.2
2019-Oct-17 01:01N 49°46' W 001°41'2 4.9
2019-Oct-17 00:30N 49°44' W 001°40'0 0.4
2019-Oct-17 00:01N 49°44' W 001°40'0 0.7
2019-Oct-16 23:30N 49°44' W 001°41'0 0.7
2019-Oct-16 23:00N 49°44' W 001°41'1 1.2
2019-Oct-16 22:30N 49°43' W 001°41'3 5.7
2019-Oct-16 22:01N 49°43' W 001°37'1 1.9
2019-Oct-16 21:30N 49°43' W 001°38'1 2.7
2019-Oct-16 21:00N 49°43' W 001°40'3 6.2
2019-Oct-16 20:30N 49°40' W 001°38'1 2.6
2019-Oct-16 20:00N 49°39' W 001°37'0 0.0
2019-Oct-16 19:30N 49°39' W 001°37'0 0.0
2019-Oct-16 19:00N 49°39' W 001°37'0 0.0
2019-Oct-16 18:31N 49°39' W 001°37'0 0.0
2019-Oct-16 18:01N 49°39' W 001°37'0 0.0
2019-Oct-16 17:31N 49°39' W 001°37'0 0.0
2019-Oct-16 17:00N 49°39' W 001°37'0 0.0
2019-Oct-16 16:31N 49°39' W 001°37'0 0.0
2019-Oct-16 16:01N 49°39' W 001°37'0 0.0
2019-Oct-16 15:30N 49°39' W 001°37'0 0.0
2019-Oct-16 15:01N 49°39' W 001°37'0 0.0
2019-Oct-16 14:31N 49°39' W 001°37'0 0.0
2019-Oct-16 14:01N 49°39' W 001°37'0 0.0
2019-Oct-16 13:30N 49°39' W 001°37'0 0.0
2019-Oct-16 13:00N 49°39' W 001°37'0 0.0
2019-Oct-16 12:31N 49°39' W 001°37'0 0.0
2019-Oct-16 12:00N 49°39' W 001°37'2 4.9
2019-Oct-16 11:30N 49°41' W 001°36'917.7
2019-Oct-16 11:00N 49°50' W 001°38'917.9
2019-Oct-16 10:30N 49°58' W 001°42'917.7
2019-Oct-16 10:01N 50°07' W 001°47'816.8
2019-Oct-16 09:30N 50°15' W 001°49'1216.6
2019-Oct-16 08:48N 50°27' W 001°51'516.1
2019-Oct-16 08:30N 50°31' W 001°51'815.5
2019-Oct-16 08:01N 50°39' W 001°55'4 8.8
2019-Oct-16 07:30N 50°42' W 001°59'0 0.6
2019-Oct-16 07:00N 50°42' W 001°59'0 0.0
2019-Oct-16 06:31N 50°42' W 001°59'0 0.0
2019-Oct-16 06:01N 50°42' W 001°59'2 3.8
2019-Oct-16 05:30N 50°41' W 001°57'510.3
2019-Oct-16 05:01N 50°37' W 001°53'714.0
2019-Oct-16 04:30N 50°30' W 001°51'712.4
2019-Oct-16 03:58N 50°23' W 001°51'1912.7
2019-Oct-16 02:31N 50°05' W 001°43'014.9
2019-Oct-16 02:30N 50°05' W 001°43'612.5
2019-Oct-16 02:00N 49°59' W 001°41'612.6
2019-Oct-16 01:30N 49°53' W 001°39'611.0
2019-Oct-16 01:00N 49°47' W 001°38'1 2.3
2019-Oct-16 00:30N 49°47' W 001°36'1 1.5
2019-Oct-16 00:00N 49°46' W 001°36'1 1.3
2019-Oct-15 23:30N 49°45' W 001°36'1 1.7
2019-Oct-15 23:00N 49°45' W 001°37'1 1.9
2019-Oct-15 22:30N 49°44' W 001°38'1 1.9
2019-Oct-15 22:00N 49°44' W 001°39'1 1.6
2019-Oct-15 21:30N 49°43' W 001°40'1 1.2
2019-Oct-15 21:00N 49°43' W 001°41'4 7.1
2019-Oct-15 20:30N 49°40' W 001°38'2 3.5
2019-Oct-15 20:00N 49°39' W 001°37'0 0.0
2019-Oct-15 19:30N 49°39' W 001°37'0 0.0
2019-Oct-15 19:01N 49°39' W 001°37'0 0.0
2019-Oct-15 18:30N 49°39' W 001°37'0 0.0
2019-Oct-15 18:00N 49°39' W 001°37'0 0.0
2019-Oct-15 17:30N 49°39' W 001°37'0 0.0
2019-Oct-15 17:00N 49°39' W 001°37'0 0.0
2019-Oct-15 16:30N 49°39' W 001°37'0 0.0
2019-Oct-15 16:00N 49°39' W 001°37'0 0.0
2019-Oct-15 15:30N 49°39' W 001°37'0 0.0
2019-Oct-15 15:00N 49°39' W 001°37'0 0.0
2019-Oct-15 14:30N 49°39' W 001°37'0 0.0
2019-Oct-15 14:00N 49°39' W 001°37'0 0.0
2019-Oct-15 13:30N 49°39' W 001°37'0 0.0
2019-Oct-15 13:00N 49°39' W 001°37'0 0.0
2019-Oct-15 12:30N 49°39' W 001°37'0 0.0
2019-Oct-15 12:00N 49°39' W 001°37'1 2.1
2019-Oct-15 11:30N 49°40' W 001°36'816.3
2019-Oct-15 11:00N 49°48' W 001°37'917.7
2019-Oct-15 10:30N 49°57' W 001°40'917.4
2019-Oct-15 10:00N 50°05' W 001°42'917.4
2019-Oct-15 09:31N 50°14' W 001°45'1317.4
2019-Oct-15 08:46N 50°26' W 001°50'416.9
2019-Oct-15 08:30N 50°31' W 001°51'816.1
2019-Oct-15 08:00N 50°38' W 001°54'4 8.4
2019-Oct-15 07:30N 50°42' W 001°58'1 2.3
2019-Oct-15 07:00N 50°42' W 001°59'0 0.0
2019-Oct-15 06:30N 50°42' W 001°59'0 0.0
2019-Oct-15 06:00N 50°42' W 001°59'2 4.8
2019-Oct-15 05:30N 50°41' W 001°57'4 8.5
2019-Oct-15 05:00N 50°37' W 001°54'714.5
2019-Oct-15 04:30N 50°30' W 001°51'1214.8
2019-Oct-15 03:43N 50°18' W 001°49'312.5
2019-Oct-15 03:30N 50°16' W 001°49'612.4
2019-Oct-15 03:00N 50°10' W 001°48'612.3
2019-Oct-15 02:30N 50°04' W 001°47'713.0
2019-Oct-15 02:00N 49°57' W 001°46'713.5
2019-Oct-15 01:30N 49°50' W 001°44'5 9.4
2019-Oct-15 01:00N 49°46' W 001°43'1 2.6
2019-Oct-15 00:30N 49°45' W 001°41'1 1.9
2019-Oct-15 00:00N 49°45' W 001°40'1 1.0
2019-Oct-14 23:30N 49°45' W 001°39'0 0.4
2019-Oct-14 23:00N 49°44' W 001°39'0 0.6
2019-Oct-14 22:30N 49°44' W 001°39'1 1.2
2019-Oct-14 22:00N 49°44' W 001°40'1 1.4
2019-Oct-14 21:30N 49°44' W 001°41'1 1.0
2019-Oct-14 21:00N 49°44' W 001°42'5 9.5
2019-Oct-14 20:30N 49°40' W 001°38'2 3.1
2019-Oct-14 20:01N 49°39' W 001°37'0 0.0
2019-Oct-14 19:30N 49°39' W 001°37'0 0.0
2019-Oct-14 19:00N 49°39' W 001°37'0 0.0
2019-Oct-14 18:28N 49°39' W 001°37'0 0.0
2019-Oct-14 17:58N 49°39' W 001°37'0 0.0
2019-Oct-14 17:28N 49°39' W 001°37'0 0.0
2019-Oct-14 16:58N 49°39' W 001°37'0 0.0
2019-Oct-14 16:28N 49°39' W 001°37'0 0.0
2019-Oct-14 15:58N 49°39' W 001°37'0 0.0
2019-Oct-14 15:28N 49°39' W 001°37'0 0.0
2019-Oct-14 14:58N 49°39' W 001°37'0 0.0
2019-Oct-14 14:28N 49°39' W 001°37'0 0.0
2019-Oct-14 13:59N 49°39' W 001°37'0 0.0
2019-Oct-14 13:29N 49°39' W 001°37'0 0.0
2019-Oct-14 13:00N 49°39' W 001°37'0 0.0
2019-Oct-14 12:30N 49°39' W 001°37'0 0.0
2019-Oct-14 12:00N 49°39' W 001°37'0 0.6
2019-Oct-14 11:30N 49°39' W 001°37'713.3
2019-Oct-14 11:00N 49°46' W 001°37'815.9
2019-Oct-14 10:30N 49°54' W 001°39'816.0
2019-Oct-14 10:00N 50°01' W 001°42'917.7
2019-Oct-14 09:30N 50°10' W 001°45'917.7
2019-Oct-14 09:01N 50°19' W 001°48'1017.6
2019-Oct-14 08:27N 50°28' W 001°51'816.9
2019-Oct-14 08:00N 50°36' W 001°54'612.0
2019-Oct-14 07:30N 50°41' W 001°57'2 3.7
2019-Oct-14 07:00N 50°42' W 001°59'0 0.0
2019-Oct-14 06:30N 50°42' W 001°59'0 0.0
2019-Oct-14 06:00N 50°42' W 001°59'0 0.0
2019-Oct-14 05:30N 50°42' W 001°59'0 0.0
2019-Oct-14 05:00N 50°42' W 001°59'0 0.0
2019-Oct-14 04:30N 50°42' W 001°59'0 0.0
2019-Oct-14 04:00N 50°42' W 001°59'0 0.0
2019-Oct-14 03:30N 50°42' W 001°59'0 0.0
2019-Oct-14 03:00N 50°42' W 001°59'0 0.0
2019-Oct-14 02:30N 50°42' W 001°59'0 0.0
2019-Oct-14 02:00N 50°42' W 001°59'0 0.0
2019-Oct-14 01:30N 50°42' W 001°59'0 0.0
2019-Oct-14 01:00N 50°42' W 001°59'0 0.0
2019-Oct-14 00:30N 50°42' W 001°59'0 0.0
2019-Oct-14 00:00N 50°42' W 001°59'0 0.0
2019-Oct-13 23:30N 50°42' W 001°59'0 0.0
2019-Oct-13 23:00N 50°42' W 001°59'0 0.0
2019-Oct-13 22:30N 50°42' W 001°59'0 0.0
2019-Oct-13 22:00N 50°42' W 001°59'0 0.0
2019-Oct-13 21:30N 50°42' W 001°59'0 0.0
2019-Oct-13 21:00N 50°42' W 001°59'2 3.2
2019-Oct-13 20:30N 50°42' W 001°57'510.6
2019-Oct-13 20:00N 50°37' W 001°53'917.2
2019-Oct-13 19:30N 50°29' W 001°50'2416.7
2019-Oct-13 18:03N 50°05' W 001°44'116.6
2019-Oct-13 18:00N 50°04' W 001°44'817.0
2019-Oct-13 17:30N 49°55' W 001°43'816.8
2019-Oct-13 17:00N 49°47' W 001°41'815.3
2019-Oct-13 16:31N 49°40' W 001°37'1 2.2
2019-Oct-13 16:00N 49°39' W 001°37'0 0.0
2019-Oct-13 15:30N 49°39' W 001°37'0 0.0
2019-Oct-13 15:00N 49°39' W 001°37'0 0.0
2019-Oct-13 14:30N 49°39' W 001°37'0 0.0
2019-Oct-13 14:01N 49°39' W 001°37'0 0.0
2019-Oct-13 13:30N 49°39' W 001°37'0 0.0
2019-Oct-13 13:01N 49°39' W 001°37'0 0.0
2019-Oct-13 12:30N 49°39' W 001°37'0 0.0
2019-Oct-13 12:00N 49°39' W 001°37'4 7.7
2019-Oct-13 11:30N 49°42' W 001°40'816.7
2019-Oct-13 11:01N 49°50' W 001°43'817.0
2019-Oct-13 10:31N 49°58' W 001°46'816.7
2019-Oct-13 10:00N 50°07' W 001°48'816.4
2019-Oct-13 09:30N 50°15' W 001°49'916.0
2019-Oct-13 08:56N 50°24' W 001°50'715.5
2019-Oct-13 08:30N 50°31' W 001°52'715.0
2019-Oct-13 08:00N 50°38' W 001°54'5 9.6
2019-Oct-13 07:30N 50°42' W 001°58'1 2.4
2019-Oct-13 07:00N 50°42' W 001°59'0 0.0
2019-Oct-13 06:30N 50°42' W 001°59'0 0.0
2019-Oct-13 05:58N 50°42' W 001°59'0 0.0
2019-Oct-13 05:29N 50°42' W 001°59'0 0.0
2019-Oct-13 04:59N 50°42' W 001°59'0 0.0
2019-Oct-13 04:28N 50°42' W 001°59'0 0.0
2019-Oct-13 03:58N 50°42' W 001°59'0 0.0
2019-Oct-13 03:29N 50°42' W 001°59'0 0.0
2019-Oct-13 02:59N 50°42' W 001°59'0 0.0
2019-Oct-13 02:29N 50°42' W 001°59'0 0.0
2019-Oct-13 01:59N 50°42' W 001°59'0 0.0
2019-Oct-13 01:28N 50°42' W 001°59'0 0.0
2019-Oct-13 00:58N 50°42' W 001°59'0 0.0
2019-Oct-13 00:29N 50°42' W 001°59'0 0.0
2019-Oct-12 23:59N 50°42' W 001°59'0 0.0
2019-Oct-12 23:28N 50°42' W 001°59'0 0.0
2019-Oct-12 22:58N 50°42' W 001°59'0 0.0
2019-Oct-12 22:28N 50°42' W 001°59'0 0.0
2019-Oct-12 21:58N 50°42' W 001°59'0 0.0
2019-Oct-12 21:29N 50°42' W 001°59'0 0.0
2019-Oct-12 21:01N 50°42' W 001°59'2 3.6
2019-Oct-12 20:30N 50°41' W 001°57'612.2
2019-Oct-12 20:00N 50°36' W 001°53'917.0
2019-Oct-12 19:30N 50°28' W 001°49'2017.0
2019-Oct-12 18:21N 50°08' W 001°46'617.0
2019-Oct-12 18:00N 50°02' W 001°44'917.1
2019-Oct-12 17:31N 49°54' W 001°42'816.7
2019-Oct-12 17:00N 49°46' W 001°40'713.9
2019-Oct-12 16:30N 49°39' W 001°37'0 0.7
2019-Oct-12 16:00N 49°39' W 001°37'0 0.0
2019-Oct-12 15:30N 49°39' W 001°37'0 0.0
2019-Oct-12 15:00N 49°39' W 001°37'0 0.0
2019-Oct-12 14:30N 49°39' W 001°37'0 0.0
2019-Oct-12 14:00N 49°39' W 001°37'0 0.0
2019-Oct-12 13:30N 49°39' W 001°37'0 0.0
2019-Oct-12 13:00N 49°39' W 001°37'0 0.0
2019-Oct-12 12:30N 49°39' W 001°37'0 0.0
2019-Oct-12 12:00N 49°39' W 001°37'2 4.8
2019-Oct-12 11:31N 49°41' W 001°39'816.7
2019-Oct-12 11:00N 49°49' W 001°40'917.7
2019-Oct-12 10:31N 49°58' W 001°40'917.0
2019-Oct-12 10:00N 50°06' W 001°44'917.1
2019-Oct-12 09:30N 50°14' W 001°48'1317.3
2019-Oct-12 08:46N 50°27' W 001°50'417.0
2019-Oct-12 08:31N 50°31' W 001°52'  
Track history (hours):
 
Tides and Currents Weather Stations Pressure Air Temp Water Temp Dewpoint Dewpoint Depression Visibility Wind Speed Wind Dir Waves Ship Positions

Barfleur

Operator: Brittany Ferries

Last reported at 2019-Oct-22 08:27 UTC. Time now 2019-Oct-22 23:41 UTC.
Position N 50°29' W 001°51'.

Length 158 m; draft 5 m.

Type: Ship. MMSI: 227289000.

Date/timePositionNaut miles runAvg speedWind from/ knotsBaromVisibWave heightAir tempDewpointWater temp
2019-Oct-22 08:27N 50°29' W 001°51'817.4
2019-Oct-22 08:00N 50°36' W 001°53'612.9
2019-Oct-22 07:31N 50°42' W 001°57'1 2.8
2019-Oct-22 07:00N 50°42' W 001°59'0 0.0
2019-Oct-22 06:30N 50°42' W 001°59'0 0.0
2019-Oct-22 06:00N 50°42' W 001°59'2 3.4
2019-Oct-22 05:31N 50°42' W 001°57'611.9
2019-Oct-22 05:00N 50°36' W 001°53'612.7
2019-Oct-22 04:31N 50°30' W 001°50'2 0.1
2019-Oct-21 08:30N 50°29' W 001°50'917.6
2019-Oct-21 08:00N 50°37' W 001°54'612.1
2019-Oct-21 07:30N 50°42' W 001°58'1 1.3
2019-Oct-21 06:58N 50°42' W 001°59'0 0.0
2019-Oct-21 06:31N 50°42' W 001°59'0 0.0
2019-Oct-21 06:00N 50°42' W 001°59'0 0.0
2019-Oct-21 05:31N 50°42' W 001°59'0 0.0
2019-Oct-21 05:00N 50°42' W 001°59'0 0.0
2019-Oct-21 04:30N 50°42' W 001°59'0 0.0
2019-Oct-21 04:01N 50°42' W 001°59'0 0.0
2019-Oct-21 03:30N 50°42' W 001°59'0 0.0
2019-Oct-21 03:01N 50°42' W 001°59'0 0.0
2019-Oct-21 02:30N 50°42' W 001°59'0 0.0
2019-Oct-21 02:00N 50°42' W 001°59'0 0.0
2019-Oct-21 01:30N 50°42' W 001°59'0 0.0
2019-Oct-21 01:01N 50°42' W 001°59'0 0.0
2019-Oct-21 00:30N 50°42' W 001°59'0 0.0
2019-Oct-21 00:00N 50°42' W 001°59'0 0.0
2019-Oct-20 23:31N 50°42' W 001°59'0 0.0
2019-Oct-20 23:00N 50°42' W 001°59'0 0.0
2019-Oct-20 22:31N 50°42' W 001°59'0 0.0
2019-Oct-20 22:01N 50°42' W 001°59'0 0.0
2019-Oct-20 21:31N 50°42' W 001°59'0 0.0
2019-Oct-20 21:00N 50°42' W 001°59'2 4.2
2019-Oct-20 20:31N 50°41' W 001°57'713.9
2019-Oct-20 20:01N 50°35' W 001°52'9 0.8
2019-Oct-20 08:37N 50°26' W 001°50'217.4
2019-Oct-20 08:30N 50°28' W 001°51'817.3
2019-Oct-20 08:00N 50°36' W 001°52'612.4
2019-Oct-20 07:31N 50°42' W 001°57'2 3.4
2019-Oct-20 07:01N 50°42' W 001°59'0 0.0
2019-Oct-20 06:30N 50°42' W 001°59'0 0.0
2019-Oct-20 06:00N 50°42' W 001°59'0 0.0
2019-Oct-20 05:30N 50°42' W 001°59'0 0.0
2019-Oct-20 05:00N 50°42' W 001°59'0 0.0
2019-Oct-20 04:30N 50°42' W 001°59'0 0.0
2019-Oct-20 04:01N 50°42' W 001°59'0 0.0
2019-Oct-20 03:30N 50°42' W 001°59'0 0.0
2019-Oct-20 03:00N 50°42' W 001°59'0 0.0
2019-Oct-20 02:25N 50°42' W 001°59'0 0.0
2019-Oct-20 01:55N 50°42' W 001°59'0 0.0
2019-Oct-20 01:28N 50°42' W 001°59'0 0.0
2019-Oct-20 00:55N 50°42' W 001°59'0 0.0
2019-Oct-20 00:28N 50°42' W 001°59'0 0.0
2019-Oct-19 23:58N 50°42' W 001°59'0 0.0
2019-Oct-19 23:25N 50°42' W 001°59'0 0.0
2019-Oct-19 22:58N 50°42' W 001°59'0 0.0
2019-Oct-19 22:19N 50°42' W 001°59'0 0.0
2019-Oct-19 21:58N 50°42' W 001°59'0 0.0
2019-Oct-19 21:28N 50°42' W 001°59'0 0.0
2019-Oct-19 20:55N 50°42' W 001°59'0 1.1
2019-Oct-19 20:30N 50°42' W 001°59'611.3
2019-Oct-19 20:01N 50°38' W 001°54'916.9
2019-Oct-19 19:30N 50°29' W 001°50'2 0.2
2019-Oct-19 08:35N 50°27' W 001°51'216.7
2019-Oct-19 08:30N 50°29' W 001°52'816.1
2019-Oct-19 08:00N 50°37' W 001°53'611.2
2019-Oct-19 07:31N 50°42' W 001°57'2 3.3
2019-Oct-19 07:01N 50°42' W 001°59'0 0.0
2019-Oct-19 06:29N 50°42' W 001°59'0 0.0
2019-Oct-19 05:59N 50°42' W 001°59'0 0.0
2019-Oct-19 05:29N 50°42' W 001°59'0 0.0
2019-Oct-19 04:59N 50°42' W 001°59'0 0.0
2019-Oct-19 04:29N 50°42' W 001°59'0 0.0
2019-Oct-19 03:57N 50°42' W 001°59'0 0.0
2019-Oct-19 03:29N 50°42' W 001°59'0 0.0
2019-Oct-19 02:59N 50°42' W 001°59'0 0.0
2019-Oct-19 02:29N 50°42' W 001°59'0 0.0
2019-Oct-19 01:59N 50°42' W 001°59'0 0.0
2019-Oct-19 01:29N 50°42' W 001°59'0 0.0
2019-Oct-19 00:59N 50°42' W 001°59'0 0.0
2019-Oct-19 00:29N 50°42' W 001°59'0 0.0
2019-Oct-18 23:59N 50°42' W 001°59'0 0.0
2019-Oct-18 23:27N 50°42' W 001°59'0 0.0
2019-Oct-18 22:59N 50°42' W 001°59'0 0.0
2019-Oct-18 22:29N 50°42' W 001°59'0 0.0
2019-Oct-18 21:59N 50°42' W 001°59'0 0.0
2019-Oct-18 21:29N 50°42' W 001°59'0 0.0
2019-Oct-18 21:00N 50°42' W 001°59'3 6.7
2019-Oct-18 20:30N 50°40' W 001°56'815.9
2019-Oct-18 20:00N 50°33' W 001°51'5316.3
2019-Oct-18 16:46N 49°40' W 001°39'14 2.4
2019-Oct-18 10:57N 49°54' W 001°33'614.8
2019-Oct-18 10:30N 50°00' W 001°33'714.6
2019-Oct-18 10:00N 50°08' W 001°36'816.4
2019-Oct-18 09:30N 50°15' W 001°41'1416.1
2019-Oct-18 08:40N 50°27' W 001°50'215.9
2019-Oct-18 08:30N 50°30' W 001°51'815.0
2019-Oct-18 08:00N 50°37' W 001°54'510.3
2019-Oct-18 07:30N 50°42' W 001°57'2 3.1
2019-Oct-18 06:59N 50°42' W 001°59'0 0.0
2019-Oct-18 06:29N 50°42' W 001°59'0 0.0
2019-Oct-18 05:59N 50°42' W 001°59'0 0.0
2019-Oct-18 05:29N 50°42' W 001°59'0 0.0
2019-Oct-18 04:59N 50°42' W 001°59'0 0.0
2019-Oct-18 04:29N 50°42' W 001°59'0 0.0
2019-Oct-18 03:59N 50°42' W 001°59'0 0.0
2019-Oct-18 03:29N 50°42' W 001°59'0 0.0
2019-Oct-18 02:59N 50°42' W 001°59'0 0.0
2019-Oct-18 02:23N 50°42' W 001°59'0 0.0
2019-Oct-18 01:59N 50°42' W 001°59'0 0.0
2019-Oct-18 01:26N 50°42' W 001°59'0 0.0
2019-Oct-18 00:59N 50°42' W 001°59'0 0.0
2019-Oct-18 00:29N 50°42' W 001°59'0 0.0
2019-Oct-17 23:59N 50°42' W 001°59'0 0.0
2019-Oct-17 23:29N 50°42' W 001°59'0 0.0
2019-Oct-17 22:59N 50°42' W 001°59'0 0.0
2019-Oct-17 22:29N 50°42' W 001°59'0 0.0
2019-Oct-17 21:59N 50°42' W 001°59'0 0.0
2019-Oct-17 21:29N 50°42' W 001°59'0 0.1
2019-Oct-17 21:00N 50°42' W 001°59'4 7.3
2019-Oct-17 20:30N 50°40' W 001°56'815.7
2019-Oct-17 20:00N 50°33' W 001°50'2616.4
2019-Oct-17 18:25N 50°07' W 001°45'716.6
2019-Oct-17 18:00N 50°00' W 001°44'816.8
2019-Oct-17 17:31N 49°52' W 001°42'816.9
2019-Oct-17 17:00N 49°43' W 001°40'5 9.1
2019-Oct-17 16:27N 49°39' W 001°37'0 0.0
2019-Oct-17 15:58N 49°39' W 001°37'0 0.0
2019-Oct-17 15:30N 49°39' W 001°37'0 0.0
2019-Oct-17 15:00N 49°39' W 001°37'0 0.0
2019-Oct-17 14:31N 49°39' W 001°37'0 0.0
2019-Oct-17 14:00N 49°39' W 001°37'0 0.0
2019-Oct-17 13:30N 49°39' W 001°37'0 0.0
2019-Oct-17 13:00N 49°39' W 001°37'0 0.0
2019-Oct-17 12:30N 49°39' W 001°37'0 0.0
2019-Oct-17 12:00N 49°39' W 001°37'4 8.5
2019-Oct-17 11:30N 49°43' W 001°36'917.2
2019-Oct-17 11:00N 49°52' W 001°38'816.8
2019-Oct-17 10:31N 49°60' W 001°41'816.0
2019-Oct-17 10:01N 50°07' W 001°44'816.0
2019-Oct-17 09:30N 50°16' W 001°46'1216.2
2019-Oct-17 08:46N 50°27' W 001°51'416.4
2019-Oct-17 08:30N 50°31' W 001°52'815.3
2019-Oct-17 08:00N 50°39' W 001°55'5 9.1
2019-Oct-17 07:30N 50°42' W 001°59'0 0.8
2019-Oct-17 07:00N 50°42' W 001°59'0 0.0
2019-Oct-17 06:30N 50°42' W 001°59'0 0.0
2019-Oct-17 06:00N 50°42' W 001°59'2 4.3
2019-Oct-17 05:30N 50°41' W 001°57'4 7.2
2019-Oct-17 05:00N 50°38' W 001°54'714.1
2019-Oct-17 04:30N 50°31' W 001°51'1613.8
2019-Oct-17 03:20N 50°15' W 001°47'412.5
2019-Oct-17 03:01N 50°11' W 001°46'611.8
2019-Oct-17 02:30N 50°05' W 001°47'612.3
2019-Oct-17 02:00N 49°59' W 001°45'613.0
2019-Oct-17 01:30N 49°53' W 001°43'713.2
2019-Oct-17 01:01N 49°46' W 001°41'2 4.9
2019-Oct-17 00:30N 49°44' W 001°40'0 0.4
2019-Oct-17 00:01N 49°44' W 001°40'0 0.7
2019-Oct-16 23:30N 49°44' W 001°41'0 0.7
2019-Oct-16 23:00N 49°44' W 001°41'1 1.2
2019-Oct-16 22:30N 49°43' W 001°41'3 5.7
2019-Oct-16 22:01N 49°43' W 001°37'1 1.9
2019-Oct-16 21:30N 49°43' W 001°38'1 2.7
2019-Oct-16 21:00N 49°43' W 001°40'3 6.2
2019-Oct-16 20:30N 49°40' W 001°38'1 2.6
2019-Oct-16 20:00N 49°39' W 001°37'0 0.0
2019-Oct-16 19:30N 49°39' W 001°37'0 0.0
2019-Oct-16 19:00N 49°39' W 001°37'0 0.0
2019-Oct-16 18:31N 49°39' W 001°37'0 0.0
2019-Oct-16 18:01N 49°39' W 001°37'0 0.0
2019-Oct-16 17:31N 49°39' W 001°37'0 0.0
2019-Oct-16 17:00N 49°39' W 001°37'0 0.0
2019-Oct-16 16:31N 49°39' W 001°37'0 0.0
2019-Oct-16 16:01N 49°39' W 001°37'0 0.0
2019-Oct-16 15:30N 49°39' W 001°37'0 0.0
2019-Oct-16 15:01N 49°39' W 001°37'0 0.0
2019-Oct-16 14:31N 49°39' W 001°37'0 0.0
2019-Oct-16 14:01N 49°39' W 001°37'0 0.0
2019-Oct-16 13:30N 49°39' W 001°37'0 0.0
2019-Oct-16 13:00N 49°39' W 001°37'0 0.0
2019-Oct-16 12:31N 49°39' W 001°37'0 0.0
2019-Oct-16 12:00N 49°39' W 001°37'2 4.9
2019-Oct-16 11:30N 49°41' W 001°36'917.7
2019-Oct-16 11:00N 49°50' W 001°38'917.9
2019-Oct-16 10:30N 49°58' W 001°42'917.7
2019-Oct-16 10:01N 50°07' W 001°47'816.8
2019-Oct-16 09:30N 50°15' W 001°49'1216.6
2019-Oct-16 08:48N 50°27' W 001°51'516.1
2019-Oct-16 08:30N 50°31' W 001°51'815.5
2019-Oct-16 08:01N 50°39' W 001°55'4 8.8
2019-Oct-16 07:30N 50°42' W 001°59'0 0.6
2019-Oct-16 07:00N 50°42' W 001°59'0 0.0
2019-Oct-16 06:31N 50°42' W 001°59'0 0.0
2019-Oct-16 06:01N 50°42' W 001°59'2 3.8
2019-Oct-16 05:30N 50°41' W 001°57'510.3
2019-Oct-16 05:01N 50°37' W 001°53'714.0
2019-Oct-16 04:30N 50°30' W 001°51'712.4
2019-Oct-16 03:58N 50°23' W 001°51'1912.7
2019-Oct-16 02:31N 50°05' W 001°43'014.9
2019-Oct-16 02:30N 50°05' W 001°43'612.5
2019-Oct-16 02:00N 49°59' W 001°41'612.6
2019-Oct-16 01:30N 49°53' W 001°39'611.0
2019-Oct-16 01:00N 49°47' W 001°38'1 2.3
2019-Oct-16 00:30N 49°47' W 001°36'1 1.5
2019-Oct-16 00:00N 49°46' W 001°36'1 1.3
2019-Oct-15 23:30N 49°45' W 001°36'1 1.7
2019-Oct-15 23:00N 49°45' W 001°37'1 1.9
2019-Oct-15 22:30N 49°44' W 001°38'1 1.9
2019-Oct-15 22:00N 49°44' W 001°39'1 1.6
2019-Oct-15 21:30N 49°43' W 001°40'1 1.2
2019-Oct-15 21:00N 49°43' W 001°41'4 7.1
2019-Oct-15 20:30N 49°40' W 001°38'2 3.5
2019-Oct-15 20:00N 49°39' W 001°37'0 0.0
2019-Oct-15 19:30N 49°39' W 001°37'0 0.0
2019-Oct-15 19:01N 49°39' W 001°37'0 0.0
2019-Oct-15 18:30N 49°39' W 001°37'0 0.0
2019-Oct-15 18:00N 49°39' W 001°37'0 0.0
2019-Oct-15 17:30N 49°39' W 001°37'0 0.0
2019-Oct-15 17:00N 49°39' W 001°37'0 0.0
2019-Oct-15 16:30N 49°39' W 001°37'0 0.0
2019-Oct-15 16:00N 49°39' W 001°37'0 0.0
2019-Oct-15 15:30N 49°39' W 001°37'0 0.0
2019-Oct-15 15:00N 49°39' W 001°37'0 0.0
2019-Oct-15 14:30N 49°39' W 001°37'0 0.0
2019-Oct-15 14:00N 49°39' W 001°37'0 0.0
2019-Oct-15 13:30N 49°39' W 001°37'0 0.0
2019-Oct-15 13:00N 49°39' W 001°37'0 0.0
2019-Oct-15 12:30N 49°39' W 001°37'0 0.0
2019-Oct-15 12:00N 49°39' W 001°37'1 2.1
2019-Oct-15 11:30N 49°40' W 001°36'816.3
2019-Oct-15 11:00N 49°48' W 001°37'917.7
2019-Oct-15 10:30N 49°57' W 001°40'917.4
2019-Oct-15 10:00N 50°05' W 001°42'917.4
2019-Oct-15 09:31N 50°14' W 001°45'1317.4
2019-Oct-15 08:46N 50°26' W 001°50'416.9
2019-Oct-15 08:30N 50°31' W 001°51'816.1
2019-Oct-15 08:00N 50°38' W 001°54'4 8.4
2019-Oct-15 07:30N 50°42' W 001°58'1 2.3
2019-Oct-15 07:00N 50°42' W 001°59'0 0.0
2019-Oct-15 06:30N 50°42' W 001°59'0 0.0
2019-Oct-15 06:00N 50°42' W 001°59'2 4.8
2019-Oct-15 05:30N 50°41' W 001°57'4 8.5
2019-Oct-15 05:00N 50°37' W 001°54'714.5
2019-Oct-15 04:30N 50°30' W 001°51'1214.8
2019-Oct-15 03:43N 50°18' W 001°49'312.5
2019-Oct-15 03:30N 50°16' W 001°49'612.4
2019-Oct-15 03:00N 50°10' W 001°48'612.3
2019-Oct-15 02:30N 50°04' W 001°47'713.0
2019-Oct-15 02:00N 49°57' W 001°46'713.5
2019-Oct-15 01:30N 49°50' W 001°44'5 9.4
2019-Oct-15 01:00N 49°46' W 001°43'1 2.6
2019-Oct-15 00:30N 49°45' W 001°41'1 1.9
2019-Oct-15 00:00N 49°45' W 001°40'1 1.0
2019-Oct-14 23:30N 49°45' W 001°39'0 0.4
2019-Oct-14 23:00N 49°44' W 001°39'0 0.6
2019-Oct-14 22:30N 49°44' W 001°39'1 1.2
2019-Oct-14 22:00N 49°44' W 001°40'1 1.4
2019-Oct-14 21:30N 49°44' W 001°41'1 1.0
2019-Oct-14 21:00N 49°44' W 001°42'5 9.5
2019-Oct-14 20:30N 49°40' W 001°38'2 3.1
2019-Oct-14 20:01N 49°39' W 001°37'0 0.0
2019-Oct-14 19:30N 49°39' W 001°37'0 0.0
2019-Oct-14 19:00N 49°39' W 001°37'0 0.0
2019-Oct-14 18:28N 49°39' W 001°37'0 0.0
2019-Oct-14 17:58N 49°39' W 001°37'0 0.0
2019-Oct-14 17:28N 49°39' W 001°37'0 0.0
2019-Oct-14 16:58N 49°39' W 001°37'0 0.0
2019-Oct-14 16:28N 49°39' W 001°37'0 0.0
2019-Oct-14 15:58N 49°39' W 001°37'0 0.0
2019-Oct-14 15:28N 49°39' W 001°37'0 0.0
2019-Oct-14 14:58N 49°39' W 001°37'0 0.0
2019-Oct-14 14:28N 49°39' W 001°37'0 0.0
2019-Oct-14 13:59N 49°39' W 001°37'0 0.0
2019-Oct-14 13:29N 49°39' W 001°37'0 0.0
2019-Oct-14 13:00N 49°39' W 001°37'0 0.0
2019-Oct-14 12:30N 49°39' W 001°37'0 0.0
2019-Oct-14 12:00N 49°39' W 001°37'0 0.6
2019-Oct-14 11:30N 49°39' W 001°37'713.3
2019-Oct-14 11:00N 49°46' W 001°37'815.9
2019-Oct-14 10:30N 49°54' W 001°39'816.0
2019-Oct-14 10:00N 50°01' W 001°42'917.7
2019-Oct-14 09:30N 50°10' W 001°45'917.7
2019-Oct-14 09:01N 50°19' W 001°48'1017.6
2019-Oct-14 08:27N 50°28' W 001°51'816.9
2019-Oct-14 08:00N 50°36' W 001°54'612.0
2019-Oct-14 07:30N 50°41' W 001°57'2 3.7
2019-Oct-14 07:00N 50°42' W 001°59'0 0.0
2019-Oct-14 06:30N 50°42' W 001°59'0 0.0
2019-Oct-14 06:00N 50°42' W 001°59'0 0.0
2019-Oct-14 05:30N 50°42' W 001°59'0 0.0
2019-Oct-14 05:00N 50°42' W 001°59'0 0.0
2019-Oct-14 04:30N 50°42' W 001°59'0 0.0
2019-Oct-14 04:00N 50°42' W 001°59'0 0.0
2019-Oct-14 03:30N 50°42' W 001°59'0 0.0
2019-Oct-14 03:00N 50°42' W 001°59'0 0.0
2019-Oct-14 02:30N 50°42' W 001°59'0 0.0
2019-Oct-14 02:00N 50°42' W 001°59'0 0.0
2019-Oct-14 01:30N 50°42' W 001°59'0 0.0
2019-Oct-14 01:00N 50°42' W 001°59'0 0.0
2019-Oct-14 00:30N 50°42' W 001°59'0 0.0
2019-Oct-14 00:00N 50°42' W 001°59'0 0.0
2019-Oct-13 23:30N 50°42' W 001°59'0 0.0
2019-Oct-13 23:00N 50°42' W 001°59'0 0.0
2019-Oct-13 22:30N 50°42' W 001°59'0 0.0
2019-Oct-13 22:00N 50°42' W 001°59'0 0.0
2019-Oct-13 21:30N 50°42' W 001°59'0 0.0
2019-Oct-13 21:00N 50°42' W 001°59'2 3.2
2019-Oct-13 20:30N 50°42' W 001°57'510.6
2019-Oct-13 20:00N 50°37' W 001°53'917.2
2019-Oct-13 19:30N 50°29' W 001°50'2416.7
2019-Oct-13 18:03N 50°05' W 001°44'116.6
2019-Oct-13 18:00N 50°04' W 001°44'817.0
2019-Oct-13 17:30N 49°55' W 001°43'816.8
2019-Oct-13 17:00N 49°47' W 001°41'815.3
2019-Oct-13 16:31N 49°40' W 001°37'1 2.2
2019-Oct-13 16:00N 49°39' W 001°37'0 0.0
2019-Oct-13 15:30N 49°39' W 001°37'0 0.0
2019-Oct-13 15:00N 49°39' W 001°37'0 0.0
2019-Oct-13 14:30N 49°39' W 001°37'0 0.0
2019-Oct-13 14:01N 49°39' W 001°37'0 0.0
2019-Oct-13 13:30N 49°39' W 001°37'0 0.0
2019-Oct-13 13:01N 49°39' W 001°37'0 0.0
2019-Oct-13 12:30N 49°39' W 001°37'0 0.0
2019-Oct-13 12:00N 49°39' W 001°37'4 7.7
2019-Oct-13 11:30N 49°42' W 001°40'816.7
2019-Oct-13 11:01N 49°50' W 001°43'817.0
2019-Oct-13 10:31N 49°58' W 001°46'816.7
2019-Oct-13 10:00N 50°07' W 001°48'816.4
2019-Oct-13 09:30N 50°15' W 001°49'916.0
2019-Oct-13 08:56N 50°24' W 001°50'715.5
2019-Oct-13 08:30N 50°31' W 001°52'715.0
2019-Oct-13 08:00N 50°38' W 001°54'5 9.6
2019-Oct-13 07:30N 50°42' W 001°58'1 2.4
2019-Oct-13 07:00N 50°42' W 001°59'0 0.0
2019-Oct-13 06:30N 50°42' W 001°59'0 0.0
2019-Oct-13 05:58N 50°42' W 001°59'0 0.0
2019-Oct-13 05:29N 50°42' W 001°59'0 0.0
2019-Oct-13 04:59N 50°42' W 001°59'0 0.0
2019-Oct-13 04:28N 50°42' W 001°59'0 0.0
2019-Oct-13 03:58N 50°42' W 001°59'0 0.0
2019-Oct-13 03:29N 50°42' W 001°59'0 0.0
2019-Oct-13 02:59N 50°42' W 001°59'0 0.0
2019-Oct-13 02:29N 50°42' W 001°59'0 0.0
2019-Oct-13 01:59N 50°42' W 001°59'0 0.0
2019-Oct-13 01:28N 50°42' W 001°59'0 0.0
2019-Oct-13 00:58N 50°42' W 001°59'0 0.0
2019-Oct-13 00:29N 50°42' W 001°59'0 0.0
2019-Oct-12 23:59N 50°42' W 001°59'0 0.0
2019-Oct-12 23:28N 50°42' W 001°59'0 0.0
2019-Oct-12 22:58N 50°42' W 001°59'0 0.0
2019-Oct-12 22:28N 50°42' W 001°59'0 0.0
2019-Oct-12 21:58N 50°42' W 001°59'0 0.0
2019-Oct-12 21:29N 50°42' W 001°59'0 0.0
2019-Oct-12 21:01N 50°42' W 001°59'2 3.6
2019-Oct-12 20:30N 50°41' W 001°57'612.2
2019-Oct-12 20:00N 50°36' W 001°53'917.0
2019-Oct-12 19:30N 50°28' W 001°49'2017.0
2019-Oct-12 18:21N 50°08' W 001°46'617.0
2019-Oct-12 18:00N 50°02' W 001°44'917.1
2019-Oct-12 17:31N 49°54' W 001°42'816.7
2019-Oct-12 17:00N 49°46' W 001°40'713.9
2019-Oct-12 16:30N 49°39' W 001°37'0 0.7
2019-Oct-12 16:00N 49°39' W 001°37'0 0.0
2019-Oct-12 15:30N 49°39' W 001°37'0 0.0
2019-Oct-12 15:00N 49°39' W 001°37'0 0.0
2019-Oct-12 14:30N 49°39' W 001°37'0 0.0
2019-Oct-12 14:00N 49°39' W 001°37'0 0.0
2019-Oct-12 13:30N 49°39' W 001°37'0 0.0
2019-Oct-12 13:00N 49°39' W 001°37'0 0.0
2019-Oct-12 12:30N 49°39' W 001°37'0 0.0
2019-Oct-12 12:00N 49°39' W 001°37'2 4.8
2019-Oct-12 11:31N 49°41' W 001°39'816.7
2019-Oct-12 11:00N 49°49' W 001°40'917.7
2019-Oct-12 10:31N 49°58' W 001°40'917.0
2019-Oct-12 10:00N 50°06' W 001°44'917.1
2019-Oct-12 09:30N 50°14' W 001°48'1317.3
2019-Oct-12 08:46N 50°27' W 001°50'417.0
2019-Oct-12 08:31N 50°31' W 001°52'  

Dump ship's entire track history